sensor_id;sensor_type;location;lat;lon;timestamp;P1;durP1;ratioP1;P2;durP2;ratioP2
77573;SDS011;66710;48.868;9.080;2023-11-18T00:00:26;4.75;;;1.77;;
77573;SDS011;66710;48.868;9.080;2023-11-18T00:02:52;5.18;;;2.60;;
77573;SDS011;66710;48.868;9.080;2023-11-18T00:05:17;4.95;;;2.78;;
77573;SDS011;66710;48.868;9.080;2023-11-18T00:07:43;4.60;;;2.50;;
77573;SDS011;66710;48.868;9.080;2023-11-18T00:10:08;2.80;;;1.90;;
77573;SDS011;66710;48.868;9.080;2023-11-18T00:12:35;5.28;;;2.70;;
77573;SDS011;66710;48.868;9.080;2023-11-18T00:15:05;4.80;;;2.55;;
77573;SDS011;66710;48.868;9.080;2023-11-18T00:17:34;5.50;;;2.75;;
77573;SDS011;66710;48.868;9.080;2023-11-18T00:20:00;4.97;;;2.60;;
77573;SDS011;66710;48.868;9.080;2023-11-18T00:22:26;4.68;;;2.30;;
77573;SDS011;66710;48.868;9.080;2023-11-18T00:24:52;4.97;;;2.60;;
77573;SDS011;66710;48.868;9.080;2023-11-18T00:27:18;4.07;;;2.15;;
77573;SDS011;66710;48.868;9.080;2023-11-18T00:29:43;4.68;;;2.50;;
77573;SDS011;66710;48.868;9.080;2023-11-18T00:32:09;5.60;;;3.00;;
77573;SDS011;66710;48.868;9.080;2023-11-18T00:34:34;5.00;;;2.45;;
77573;SDS011;66710;48.868;9.080;2023-11-18T00:37:00;5.50;;;3.00;;
77573;SDS011;66710;48.868;9.080;2023-11-18T00:39:25;6.05;;;3.28;;
77573;SDS011;66710;48.868;9.080;2023-11-18T00:41:52;4.97;;;2.80;;
77573;SDS011;66710;48.868;9.080;2023-11-18T00:44:17;4.93;;;2.88;;
77573;SDS011;66710;48.868;9.080;2023-11-18T00:46:43;4.85;;;2.35;;
77573;SDS011;66710;48.868;9.080;2023-11-18T00:49:08;3.40;;;1.98;;
77573;SDS011;66710;48.868;9.080;2023-11-18T00:51:34;5.20;;;2.53;;
77573;SDS011;66710;48.868;9.080;2023-11-18T00:53:59;4.65;;;2.40;;
77573;SDS011;66710;48.868;9.080;2023-11-18T00:56:26;5.60;;;2.78;;
77573;SDS011;66710;48.868;9.080;2023-11-18T00:58:53;5.22;;;2.72;;
77573;SDS011;66710;48.868;9.080;2023-11-18T01:01:19;4.78;;;2.67;;
77573;SDS011;66710;48.868;9.080;2023-11-18T01:03:44;4.78;;;2.65;;
77573;SDS011;66710;48.868;9.080;2023-11-18T01:06:11;6.97;;;3.03;;
77573;SDS011;66710;48.868;9.080;2023-11-18T01:08:36;5.20;;;2.50;;
77573;SDS011;66710;48.868;9.080;2023-11-18T01:11:02;5.20;;;3.08;;
77573;SDS011;66710;48.868;9.080;2023-11-18T01:13:29;6.18;;;3.58;;
77573;SDS011;66710;48.868;9.080;2023-11-18T01:15:55;6.10;;;3.38;;
77573;SDS011;66710;48.868;9.080;2023-11-18T01:18:20;5.88;;;3.38;;
77573;SDS011;66710;48.868;9.080;2023-11-18T01:20:45;6.47;;;3.42;;
77573;SDS011;66710;48.868;9.080;2023-11-18T01:23:12;5.03;;;2.67;;
77573;SDS011;66710;48.868;9.080;2023-11-18T01:25:37;6.22;;;3.80;;
77573;SDS011;66710;48.868;9.080;2023-11-18T01:28:05;5.68;;;3.78;;
77573;SDS011;66710;48.868;9.080;2023-11-18T01:30:30;7.20;;;3.75;;
77573;SDS011;66710;48.868;9.080;2023-11-18T01:32:57;5.97;;;3.40;;
77573;SDS011;66710;48.868;9.080;2023-11-18T01:35:25;8.38;;;3.88;;
77573;SDS011;66710;48.868;9.080;2023-11-18T01:37:51;6.20;;;3.45;;
77573;SDS011;66710;48.868;9.080;2023-11-18T01:40:17;4.53;;;2.63;;
77573;SDS011;66710;48.868;9.080;2023-11-18T01:42:43;8.55;;;3.92;;
77573;SDS011;66710;48.868;9.080;2023-11-18T01:45:11;6.25;;;3.63;;
77573;SDS011;66710;48.868;9.080;2023-11-18T01:47:37;6.45;;;3.92;;
77573;SDS011;66710;48.868;9.080;2023-11-18T01:50:03;7.05;;;4.07;;
77573;SDS011;66710;48.868;9.080;2023-11-18T01:52:32;7.07;;;3.70;;
77573;SDS011;66710;48.868;9.080;2023-11-18T01:54:58;6.80;;;3.83;;
77573;SDS011;66710;48.868;9.080;2023-11-18T01:57:24;5.75;;;3.30;;
77573;SDS011;66710;48.868;9.080;2023-11-18T01:59:52;8.32;;;4.07;;
77573;SDS011;66710;48.868;9.080;2023-11-18T02:02:20;7.30;;;4.03;;
77573;SDS011;66710;48.868;9.080;2023-11-18T02:04:49;8.88;;;4.50;;
77573;SDS011;66710;48.868;9.080;2023-11-18T02:07:14;6.70;;;3.08;;
77573;SDS011;66710;48.868;9.080;2023-11-18T02:09:40;5.93;;;3.38;;
77573;SDS011;66710;48.868;9.080;2023-11-18T02:14:39;4.25;;;1.70;;
77573;SDS011;66710;48.868;9.080;2023-11-18T02:17:05;5.75;;;3.13;;
77573;SDS011;66710;48.868;9.080;2023-11-18T02:19:34;6.35;;;3.22;;
77573;SDS011;66710;48.868;9.080;2023-11-18T02:22:00;5.45;;;3.20;;
77573;SDS011;66710;48.868;9.080;2023-11-18T02:24:26;4.85;;;2.95;;
77573;SDS011;66710;48.868;9.080;2023-11-18T02:26:53;5.85;;;2.92;;
77573;SDS011;66710;48.868;9.080;2023-11-18T02:29:21;7.45;;;3.30;;
77573;SDS011;66710;48.868;9.080;2023-11-18T02:31:47;5.85;;;3.22;;
77573;SDS011;66710;48.868;9.080;2023-11-18T02:34:18;4.55;;;2.63;;
77573;SDS011;66710;48.868;9.080;2023-11-18T02:36:48;5.55;;;3.30;;
77573;SDS011;66710;48.868;9.080;2023-11-18T02:41:51;5.50;;;3.13;;
77573;SDS011;66710;48.868;9.080;2023-11-18T02:44:18;6.47;;;3.13;;
77573;SDS011;66710;48.868;9.080;2023-11-18T02:46:45;5.57;;;3.38;;
77573;SDS011;66710;48.868;9.080;2023-11-18T02:49:11;7.20;;;3.55;;
77573;SDS011;66710;48.868;9.080;2023-11-18T02:51:37;5.43;;;3.05;;
77573;SDS011;66710;48.868;9.080;2023-11-18T02:54:07;5.60;;;3.30;;
77573;SDS011;66710;48.868;9.080;2023-11-18T02:56:35;6.30;;;3.50;;
77573;SDS011;66710;48.868;9.080;2023-11-18T02:59:01;5.75;;;3.28;;
77573;SDS011;66710;48.868;9.080;2023-11-18T03:01:30;6.65;;;3.35;;
77573;SDS011;66710;48.868;9.080;2023-11-18T03:03:55;7.38;;;3.55;;
77573;SDS011;66710;48.868;9.080;2023-11-18T03:06:21;6.68;;;3.28;;
77573;SDS011;66710;48.868;9.080;2023-11-18T03:08:46;4.95;;;2.72;;
77573;SDS011;66710;48.868;9.080;2023-11-18T03:11:11;5.15;;;2.80;;
77573;SDS011;66710;48.868;9.080;2023-11-18T03:13:37;4.80;;;2.95;;
77573;SDS011;66710;48.868;9.080;2023-11-18T03:16:06;5.03;;;2.78;;
77573;SDS011;66710;48.868;9.080;2023-11-18T03:18:32;5.20;;;2.88;;
77573;SDS011;66710;48.868;9.080;2023-11-18T03:20:57;5.43;;;3.08;;
77573;SDS011;66710;48.868;9.080;2023-11-18T03:23:25;4.50;;;2.88;;
77573;SDS011;66710;48.868;9.080;2023-11-18T03:25:50;5.97;;;3.08;;
77573;SDS011;66710;48.868;9.080;2023-11-18T03:28:16;5.43;;;3.05;;
77573;SDS011;66710;48.868;9.080;2023-11-18T03:30:41;5.30;;;2.97;;
77573;SDS011;66710;48.868;9.080;2023-11-18T03:33:07;7.32;;;3.22;;
77573;SDS011;66710;48.868;9.080;2023-11-18T03:35:35;5.57;;;3.10;;
77573;SDS011;66710;48.868;9.080;2023-11-18T03:38:02;4.80;;;2.90;;
77573;SDS011;66710;48.868;9.080;2023-11-18T03:40:28;5.05;;;2.83;;
77573;SDS011;66710;48.868;9.080;2023-11-18T03:42:54;4.43;;;2.50;;
77573;SDS011;66710;48.868;9.080;2023-11-18T03:45:19;3.85;;;2.10;;
77573;SDS011;66710;48.868;9.080;2023-11-18T03:47:45;4.28;;;2.45;;
77573;SDS011;66710;48.868;9.080;2023-11-18T03:50:12;5.25;;;2.80;;
77573;SDS011;66710;48.868;9.080;2023-11-18T03:52:38;4.35;;;2.63;;
77573;SDS011;66710;48.868;9.080;2023-11-18T03:55:04;4.78;;;2.72;;
77573;SDS011;66710;48.868;9.080;2023-11-18T03:57:29;4.97;;;2.53;;
77573;SDS011;66710;48.868;9.080;2023-11-18T03:59:55;4.43;;;2.50;;
77573;SDS011;66710;48.868;9.080;2023-11-18T04:02:20;5.65;;;2.70;;
77573;SDS011;66710;48.868;9.080;2023-11-18T04:04:45;4.60;;;2.70;;
77573;SDS011;66710;48.868;9.080;2023-11-18T04:07:11;6.05;;;2.88;;
77573;SDS011;66710;48.868;9.080;2023-11-18T04:09:36;5.00;;;2.70;;
77573;SDS011;66710;48.868;9.080;2023-11-18T04:12:01;7.15;;;2.80;;
77573;SDS011;66710;48.868;9.080;2023-11-18T04:14:28;5.50;;;2.70;;
77573;SDS011;66710;48.868;9.080;2023-11-18T04:16:53;5.20;;;2.53;;
77573;SDS011;66710;48.868;9.080;2023-11-18T04:19:19;4.18;;;2.17;;
77573;SDS011;66710;48.868;9.080;2023-11-18T04:21:46;3.95;;;2.00;;
77573;SDS011;66710;48.868;9.080;2023-11-18T04:24:14;3.55;;;1.90;;
77573;SDS011;66710;48.868;9.080;2023-11-18T04:26:40;4.88;;;2.50;;
77573;SDS011;66710;48.868;9.080;2023-11-18T04:29:05;3.83;;;2.17;;
77573;SDS011;66710;48.868;9.080;2023-11-18T04:31:30;5.15;;;2.47;;
77573;SDS011;66710;48.868;9.080;2023-11-18T04:33:56;4.13;;;2.25;;
77573;SDS011;66710;48.868;9.080;2023-11-18T04:36:21;5.63;;;2.75;;
77573;SDS011;66710;48.868;9.080;2023-11-18T04:38:47;4.90;;;2.60;;
77573;SDS011;66710;48.868;9.080;2023-11-18T04:41:13;4.85;;;2.60;;
77573;SDS011;66710;48.868;9.080;2023-11-18T04:43:39;5.45;;;2.60;;
77573;SDS011;66710;48.868;9.080;2023-11-18T04:46:06;5.82;;;2.80;;
77573;SDS011;66710;48.868;9.080;2023-11-18T04:48:32;5.13;;;2.80;;
77573;SDS011;66710;48.868;9.080;2023-11-18T04:50:58;5.38;;;2.92;;
77573;SDS011;66710;48.868;9.080;2023-11-18T04:53:24;5.07;;;2.75;;
77573;SDS011;66710;48.868;9.080;2023-11-18T04:55:50;5.70;;;3.30;;
77573;SDS011;66710;48.868;9.080;2023-11-18T04:58:16;5.32;;;3.10;;
77573;SDS011;66710;48.868;9.080;2023-11-18T05:00:41;6.18;;;3.05;;
77573;SDS011;66710;48.868;9.080;2023-11-18T05:03:07;4.72;;;2.45;;
77573;SDS011;66710;48.868;9.080;2023-11-18T05:05:38;4.78;;;3.00;;
77573;SDS011;66710;48.868;9.080;2023-11-18T05:08:05;5.38;;;3.03;;
77573;SDS011;66710;48.868;9.080;2023-11-18T05:10:31;5.32;;;2.95;;
77573;SDS011;66710;48.868;9.080;2023-11-18T05:12:58;6.00;;;3.47;;
77573;SDS011;66710;48.868;9.080;2023-11-18T05:15:23;6.53;;;3.47;;
77573;SDS011;66710;48.868;9.080;2023-11-18T05:17:52;6.75;;;3.22;;
77573;SDS011;66710;48.868;9.080;2023-11-18T05:20:18;5.53;;;3.17;;
77573;SDS011;66710;48.868;9.080;2023-11-18T05:22:44;5.80;;;3.17;;
77573;SDS011;66710;48.868;9.080;2023-11-18T05:25:09;7.63;;;3.47;;
77573;SDS011;66710;48.868;9.080;2023-11-18T05:27:35;5.68;;;3.10;;
77573;SDS011;66710;48.868;9.080;2023-11-18T05:30:01;6.38;;;3.40;;
77573;SDS011;66710;48.868;9.080;2023-11-18T05:32:27;5.07;;;2.97;;
77573;SDS011;66710;48.868;9.080;2023-11-18T05:34:52;6.30;;;3.38;;
77573;SDS011;66710;48.868;9.080;2023-11-18T05:37:20;6.55;;;2.97;;
77573;SDS011;66710;48.868;9.080;2023-11-18T05:39:46;4.10;;;2.40;;
77573;SDS011;66710;48.868;9.080;2023-11-18T05:42:14;5.15;;;2.88;;
77573;SDS011;66710;48.868;9.080;2023-11-18T05:44:40;6.63;;;2.85;;
77573;SDS011;66710;48.868;9.080;2023-11-18T05:47:06;5.30;;;2.97;;
77573;SDS011;66710;48.868;9.080;2023-11-18T05:49:32;5.57;;;3.28;;
77573;SDS011;66710;48.868;9.080;2023-11-18T05:51:58;5.65;;;3.00;;
77573;SDS011;66710;48.868;9.080;2023-11-18T05:54:24;5.05;;;3.08;;
77573;SDS011;66710;48.868;9.080;2023-11-18T05:56:49;5.95;;;3.08;;
77573;SDS011;66710;48.868;9.080;2023-11-18T05:59:15;6.03;;;3.10;;
77573;SDS011;66710;48.868;9.080;2023-11-18T06:01:40;5.40;;;3.08;;
77573;SDS011;66710;48.868;9.080;2023-11-18T06:04:06;5.22;;;3.10;;
77573;SDS011;66710;48.868;9.080;2023-11-18T06:06:33;5.47;;;3.03;;
77573;SDS011;66710;48.868;9.080;2023-11-18T06:08:59;5.70;;;2.60;;
77573;SDS011;66710;48.868;9.080;2023-11-18T06:11:30;5.00;;;2.88;;
77573;SDS011;66710;48.868;9.080;2023-11-18T06:13:56;6.97;;;3.15;;
77573;SDS011;66710;48.868;9.080;2023-11-18T06:16:23;5.80;;;3.20;;
77573;SDS011;66710;48.868;9.080;2023-11-18T06:18:55;6.82;;;2.88;;
77573;SDS011;66710;48.868;9.080;2023-11-18T06:21:22;6.05;;;3.10;;
77573;SDS011;66710;48.868;9.080;2023-11-18T06:23:55;7.10;;;3.20;;
77573;SDS011;66710;48.868;9.080;2023-11-18T06:26:20;6.55;;;3.25;;
77573;SDS011;66710;48.868;9.080;2023-11-18T06:28:47;5.82;;;3.20;;
77573;SDS011;66710;48.868;9.080;2023-11-18T06:31:14;5.50;;;3.10;;
77573;SDS011;66710;48.868;9.080;2023-11-18T06:33:42;4.93;;;2.47;;
77573;SDS011;66710;48.868;9.080;2023-11-18T06:36:18;6.35;;;3.17;;
77573;SDS011;66710;48.868;9.080;2023-11-18T06:38:50;5.15;;;3.30;;
77573;SDS011;66710;48.868;9.080;2023-11-18T06:41:17;5.30;;;3.00;;
77573;SDS011;66710;48.868;9.080;2023-11-18T06:43:44;6.53;;;3.20;;
77573;SDS011;66710;48.868;9.080;2023-11-18T06:46:20;5.55;;;1.95;;
77573;SDS011;66710;48.868;9.080;2023-11-18T06:48:50;7.03;;;3.25;;
77573;SDS011;66710;48.868;9.080;2023-11-18T06:51:20;4.00;;;1.77;;
77573;SDS011;66710;48.868;9.080;2023-11-18T06:53:56;6.10;;;3.60;;
77573;SDS011;66710;48.868;9.080;2023-11-18T06:56:22;6.43;;;3.13;;
77573;SDS011;66710;48.868;9.080;2023-11-18T06:58:48;7.38;;;3.30;;
77573;SDS011;66710;48.868;9.080;2023-11-18T07:01:13;4.38;;;2.47;;
77573;SDS011;66710;48.868;9.080;2023-11-18T07:03:40;8.18;;;3.40;;
77573;SDS011;66710;48.868;9.080;2023-11-18T07:06:06;6.38;;;3.35;;
77573;SDS011;66710;48.868;9.080;2023-11-18T07:08:32;6.20;;;3.63;;
77573;SDS011;66710;48.868;9.080;2023-11-18T07:11:00;6.68;;;3.95;;
77573;SDS011;66710;48.868;9.080;2023-11-18T07:13:26;5.68;;;3.75;;
77573;SDS011;66710;48.868;9.080;2023-11-18T07:15:51;7.20;;;3.90;;
77573;SDS011;66710;48.868;9.080;2023-11-18T07:18:18;6.82;;;4.00;;
77573;SDS011;66710;48.868;9.080;2023-11-18T07:20:47;6.85;;;3.90;;
77573;SDS011;66710;48.868;9.080;2023-11-18T07:23:13;5.50;;;3.33;;
77573;SDS011;66710;48.868;9.080;2023-11-18T07:25:38;5.80;;;3.30;;
77573;SDS011;66710;48.868;9.080;2023-11-18T07:28:03;6.35;;;3.08;;
77573;SDS011;66710;48.868;9.080;2023-11-18T07:30:30;5.50;;;3.35;;
77573;SDS011;66710;48.868;9.080;2023-11-18T07:32:56;6.30;;;3.58;;
77573;SDS011;66710;48.868;9.080;2023-11-18T07:35:25;6.18;;;3.58;;
77573;SDS011;66710;48.868;9.080;2023-11-18T07:37:52;6.28;;;3.58;;
77573;SDS011;66710;48.868;9.080;2023-11-18T07:40:18;6.35;;;3.72;;
77573;SDS011;66710;48.868;9.080;2023-11-18T07:42:53;6.22;;;3.63;;
77573;SDS011;66710;48.868;9.080;2023-11-18T07:45:22;6.38;;;3.53;;
77573;SDS011;66710;48.868;9.080;2023-11-18T07:47:51;6.90;;;3.75;;
77573;SDS011;66710;48.868;9.080;2023-11-18T07:50:20;7.15;;;3.70;;
77573;SDS011;66710;48.868;9.080;2023-11-18T07:52:49;6.90;;;3.35;;
77573;SDS011;66710;48.868;9.080;2023-11-18T07:55:16;6.35;;;3.30;;
77573;SDS011;66710;48.868;9.080;2023-11-18T07:57:42;8.13;;;3.75;;
77573;SDS011;66710;48.868;9.080;2023-11-18T08:00:07;6.57;;;3.88;;
77573;SDS011;66710;48.868;9.080;2023-11-18T08:02:36;6.07;;;3.60;;
77573;SDS011;66710;48.868;9.080;2023-11-18T08:05:03;5.85;;;3.92;;
77573;SDS011;66710;48.868;9.080;2023-11-18T08:07:32;6.72;;;3.70;;
77573;SDS011;66710;48.868;9.080;2023-11-18T08:10:03;6.95;;;3.63;;
77573;SDS011;66710;48.868;9.080;2023-11-18T08:12:31;6.00;;;3.72;;
77573;SDS011;66710;48.868;9.080;2023-11-18T08:14:57;6.10;;;3.50;;
77573;SDS011;66710;48.868;9.080;2023-11-18T08:17:24;5.82;;;3.53;;
77573;SDS011;66710;48.868;9.080;2023-11-18T08:19:50;6.15;;;3.67;;
77573;SDS011;66710;48.868;9.080;2023-11-18T08:22:16;6.85;;;4.00;;
77573;SDS011;66710;48.868;9.080;2023-11-18T08:24:43;6.28;;;3.53;;
77573;SDS011;66710;48.868;9.080;2023-11-18T08:27:09;6.55;;;3.95;;
77573;SDS011;66710;48.868;9.080;2023-11-18T08:29:34;6.32;;;3.42;;
77573;SDS011;66710;48.868;9.080;2023-11-18T08:32:00;6.57;;;3.30;;
77573;SDS011;66710;48.868;9.080;2023-11-18T08:34:26;5.85;;;2.85;;
77573;SDS011;66710;48.868;9.080;2023-11-18T08:36:51;6.13;;;3.00;;
77573;SDS011;66710;48.868;9.080;2023-11-18T08:39:17;4.75;;;2.80;;
77573;SDS011;66710;48.868;9.080;2023-11-18T08:41:45;4.20;;;2.55;;
77573;SDS011;66710;48.868;9.080;2023-11-18T08:44:11;4.05;;;1.92;;
77573;SDS011;66710;48.868;9.080;2023-11-18T08:46:38;3.95;;;2.05;;
77573;SDS011;66710;48.868;9.080;2023-11-18T08:49:04;5.53;;;2.10;;
77573;SDS011;66710;48.868;9.080;2023-11-18T08:51:35;4.55;;;2.30;;
77573;SDS011;66710;48.868;9.080;2023-11-18T08:54:07;3.95;;;2.00;;
77573;SDS011;66710;48.868;9.080;2023-11-18T08:56:49;4.05;;;2.30;;
77573;SDS011;66710;48.868;9.080;2023-11-18T08:59:17;5.80;;;2.80;;
77573;SDS011;66710;48.868;9.080;2023-11-18T09:01:49;5.53;;;2.67;;
77573;SDS011;66710;48.868;9.080;2023-11-18T09:04:19;5.18;;;2.45;;
77573;SDS011;66710;48.868;9.080;2023-11-18T09:06:45;5.53;;;2.92;;
77573;SDS011;66710;48.868;9.080;2023-11-18T09:09:11;5.15;;;2.38;;
77573;SDS011;66710;48.868;9.080;2023-11-18T09:11:40;6.60;;;2.80;;
77573;SDS011;66710;48.868;9.080;2023-11-18T09:14:07;6.18;;;3.33;;
77573;SDS011;66710;48.868;9.080;2023-11-18T09:16:33;5.57;;;3.00;;
77573;SDS011;66710;48.868;9.080;2023-11-18T09:19:04;5.47;;;3.10;;
77573;SDS011;66710;48.868;9.080;2023-11-18T09:21:31;4.88;;;2.80;;
77573;SDS011;66710;48.868;9.080;2023-11-18T09:24:00;5.05;;;2.88;;
77573;SDS011;66710;48.868;9.080;2023-11-18T09:26:34;4.78;;;2.78;;
77573;SDS011;66710;48.868;9.080;2023-11-18T09:29:00;6.90;;;2.70;;
77573;SDS011;66710;48.868;9.080;2023-11-18T09:31:26;4.88;;;2.67;;
77573;SDS011;66710;48.868;9.080;2023-11-18T09:33:52;2.88;;;1.80;;
77573;SDS011;66710;48.868;9.080;2023-11-18T09:36:18;4.53;;;2.45;;
77573;SDS011;66710;48.868;9.080;2023-11-18T09:38:44;4.28;;;2.28;;
77573;SDS011;66710;48.868;9.080;2023-11-18T09:41:13;5.03;;;2.40;;
77573;SDS011;66710;48.868;9.080;2023-11-18T09:43:39;3.80;;;2.40;;
77573;SDS011;66710;48.868;9.080;2023-11-18T09:46:12;4.47;;;2.50;;
77573;SDS011;66710;48.868;9.080;2023-11-18T09:48:49;5.00;;;2.15;;
77573;SDS011;66710;48.868;9.080;2023-11-18T09:51:24;4.13;;;2.47;;
77573;SDS011;66710;48.868;9.080;2023-11-18T09:53:55;6.10;;;3.00;;
77573;SDS011;66710;48.868;9.080;2023-11-18T09:59:05;3.83;;;2.00;;
77573;SDS011;66710;48.868;9.080;2023-11-18T10:01:40;4.32;;;2.13;;
77573;SDS011;66710;48.868;9.080;2023-11-18T10:04:09;2.72;;;1.60;;
77573;SDS011;66710;48.868;9.080;2023-11-18T10:06:36;3.45;;;2.00;;
77573;SDS011;66710;48.868;9.080;2023-11-18T10:09:03;5.13;;;2.30;;
77573;SDS011;66710;48.868;9.080;2023-11-18T10:11:43;3.70;;;2.20;;
77573;SDS011;66710;48.868;9.080;2023-11-18T10:14:15;7.95;;;2.72;;
77573;SDS011;66710;48.868;9.080;2023-11-18T10:16:42;4.25;;;2.10;;
77573;SDS011;66710;48.868;9.080;2023-11-18T10:19:11;6.18;;;2.75;;
77573;SDS011;66710;48.868;9.080;2023-11-18T10:21:37;4.22;;;2.53;;
77573;SDS011;66710;48.868;9.080;2023-11-18T10:24:07;5.03;;;2.67;;
77573;SDS011;66710;48.868;9.080;2023-11-18T10:26:45;4.22;;;2.33;;
77573;SDS011;66710;48.868;9.080;2023-11-18T10:29:33;4.03;;;2.22;;
77573;SDS011;66710;48.868;9.080;2023-11-18T10:32:03;3.00;;;1.52;;
77573;SDS011;66710;48.868;9.080;2023-11-18T10:34:41;4.55;;;2.35;;
77573;SDS011;66710;48.868;9.080;2023-11-18T10:37:07;4.05;;;2.00;;
77573;SDS011;66710;48.868;9.080;2023-11-18T10:39:35;4.82;;;2.30;;
77573;SDS011;66710;48.868;9.080;2023-11-18T10:42:01;4.30;;;1.80;;
77573;SDS011;66710;48.868;9.080;2023-11-18T10:44:28;5.40;;;2.33;;
77573;SDS011;66710;48.868;9.080;2023-11-18T10:46:54;2.20;;;1.42;;
77573;SDS011;66710;48.868;9.080;2023-11-18T10:49:23;4.68;;;2.03;;
77573;SDS011;66710;48.868;9.080;2023-11-18T10:51:52;4.97;;;1.92;;
77573;SDS011;66710;48.868;9.080;2023-11-18T10:54:18;3.58;;;2.08;;
77573;SDS011;66710;48.868;9.080;2023-11-18T10:56:47;3.50;;;1.80;;
77573;SDS011;66710;48.868;9.080;2023-11-18T10:59:15;3.80;;;1.70;;
77573;SDS011;66710;48.868;9.080;2023-11-18T11:01:41;3.00;;;1.60;;
77573;SDS011;66710;48.868;9.080;2023-11-18T11:04:08;2.70;;;1.63;;
77573;SDS011;66710;48.868;9.080;2023-11-18T11:06:35;3.97;;;1.67;;
77573;SDS011;66710;48.868;9.080;2023-11-18T11:09:06;4.10;;;1.77;;
77573;SDS011;66710;48.868;9.080;2023-11-18T11:11:42;1.92;;;1.10;;
77573;SDS011;66710;48.868;9.080;2023-11-18T11:14:12;3.85;;;1.33;;
77573;SDS011;66710;48.868;9.080;2023-11-18T11:16:42;3.13;;;1.67;;
77573;SDS011;66710;48.868;9.080;2023-11-18T11:19:20;3.90;;;1.67;;
77573;SDS011;66710;48.868;9.080;2023-11-18T11:22:08;3.60;;;2.17;;
77573;SDS011;66710;48.868;9.080;2023-11-18T11:30:20;3.20;;;1.65;;
77573;SDS011;66710;48.868;9.080;2023-11-18T11:35:34;4.07;;;1.63;;
77573;SDS011;66710;48.868;9.080;2023-11-18T11:38:02;2.67;;;1.33;;
77573;SDS011;66710;48.868;9.080;2023-11-18T11:40:35;2.28;;;1.42;;
77573;SDS011;66710;48.868;9.080;2023-11-18T11:43:02;2.13;;;1.30;;
77573;SDS011;66710;48.868;9.080;2023-11-18T11:45:34;2.50;;;1.45;;
77573;SDS011;66710;48.868;9.080;2023-11-18T11:48:00;3.40;;;1.00;;
77573;SDS011;66710;48.868;9.080;2023-11-18T11:54:15;2.50;;;1.23;;
77573;SDS011;66710;48.868;9.080;2023-11-18T11:56:46;4.32;;;1.35;;
77573;SDS011;66710;48.868;9.080;2023-11-18T11:59:17;2.58;;;1.40;;
77573;SDS011;66710;48.868;9.080;2023-11-18T12:01:46;3.35;;;1.70;;
77573;SDS011;66710;48.868;9.080;2023-11-18T12:04:17;2.80;;;1.40;;
77573;SDS011;66710;48.868;9.080;2023-11-18T12:06:46;3.42;;;1.30;;
77573;SDS011;66710;48.868;9.080;2023-11-18T12:09:18;2.95;;;1.35;;
77573;SDS011;66710;48.868;9.080;2023-11-18T12:11:47;3.05;;;1.05;;
77573;SDS011;66710;48.868;9.080;2023-11-18T12:14:16;2.47;;;1.40;;
77573;SDS011;66710;48.868;9.080;2023-11-18T12:17:07;4.05;;;1.48;;
77573;SDS011;66710;48.868;9.080;2023-11-18T12:19:40;2.70;;;1.42;;
77573;SDS011;66710;48.868;9.080;2023-11-18T12:22:21;4.55;;;1.55;;
77573;SDS011;66710;48.868;9.080;2023-11-18T12:38:12;3.38;;;1.40;;
77573;SDS011;66710;48.868;9.080;2023-11-18T12:40:55;1.92;;;1.02;;
77573;SDS011;66710;48.868;9.080;2023-11-18T12:43:36;1.60;;;0.95;;
77573;SDS011;66710;48.868;9.080;2023-11-18T12:49:15;3.90;;;1.48;;
77573;SDS011;66710;48.868;9.080;2023-11-18T12:51:44;2.47;;;1.33;;
77573;SDS011;66710;48.868;9.080;2023-11-18T12:54:10;1.75;;;1.17;;
77573;SDS011;66710;48.868;9.080;2023-11-18T12:56:41;2.13;;;1.30;;
77573;SDS011;66710;48.868;9.080;2023-11-18T13:01:38;2.42;;;1.52;;
77573;SDS011;66710;48.868;9.080;2023-11-18T13:04:06;3.00;;;1.30;;
77573;SDS011;66710;48.868;9.080;2023-11-18T13:06:33;2.75;;;1.40;;
77573;SDS011;66710;48.868;9.080;2023-11-18T13:08:59;3.28;;;1.33;;
77573;SDS011;66710;48.868;9.080;2023-11-18T13:11:30;3.13;;;1.45;;
77573;SDS011;66710;48.868;9.080;2023-11-18T13:13:56;5.78;;;2.40;;
77573;SDS011;66710;48.868;9.080;2023-11-18T13:16:22;2.05;;;1.33;;
77573;SDS011;66710;48.868;9.080;2023-11-18T13:18:48;3.70;;;1.58;;
77573;SDS011;66710;48.868;9.080;2023-11-18T13:21:17;2.80;;;1.40;;
77573;SDS011;66710;48.868;9.080;2023-11-18T13:23:47;3.45;;;1.58;;
77573;SDS011;66710;48.868;9.080;2023-11-18T13:26:17;2.95;;;1.48;;
77573;SDS011;66710;48.868;9.080;2023-11-18T13:28:45;2.03;;;1.13;;
77573;SDS011;66710;48.868;9.080;2023-11-18T13:31:11;4.60;;;1.58;;
77573;SDS011;66710;48.868;9.080;2023-11-18T13:33:41;2.00;;;1.20;;
77573;SDS011;66710;48.868;9.080;2023-11-18T13:36:12;3.40;;;1.40;;
77573;SDS011;66710;48.868;9.080;2023-11-18T13:38:38;1.85;;;1.02;;
77573;SDS011;66710;48.868;9.080;2023-11-18T13:41:06;2.10;;;1.25;;
77573;SDS011;66710;48.868;9.080;2023-11-18T13:43:40;2.50;;;1.52;;
77573;SDS011;66710;48.868;9.080;2023-11-18T13:46:10;3.35;;;1.42;;
77573;SDS011;66710;48.868;9.080;2023-11-18T13:48:38;4.50;;;1.67;;
77573;SDS011;66710;48.868;9.080;2023-11-18T13:51:06;2.88;;;1.55;;
77573;SDS011;66710;48.868;9.080;2023-11-18T13:53:33;8.02;;;1.60;;
77573;SDS011;66710;48.868;9.080;2023-11-18T13:55:59;2.33;;;1.50;;
77573;SDS011;66710;48.868;9.080;2023-11-18T13:58:25;2.80;;;1.52;;
77573;SDS011;66710;48.868;9.080;2023-11-18T14:00:53;2.15;;;1.00;;
77573;SDS011;66710;48.868;9.080;2023-11-18T14:03:19;2.08;;;1.25;;
77573;SDS011;66710;48.868;9.080;2023-11-18T14:05:45;4.43;;;1.58;;
77573;SDS011;66710;48.868;9.080;2023-11-18T14:08:11;4.00;;;1.30;;
77573;SDS011;66710;48.868;9.080;2023-11-18T14:10:42;3.60;;;1.65;;
77573;SDS011;66710;48.868;9.080;2023-11-18T14:13:08;4.88;;;1.98;;
77573;SDS011;66710;48.868;9.080;2023-11-18T14:15:37;4.15;;;1.80;;
77573;SDS011;66710;48.868;9.080;2023-11-18T14:18:03;3.45;;;1.30;;
77573;SDS011;66710;48.868;9.080;2023-11-18T14:20:29;3.10;;;1.88;;
77573;SDS011;66710;48.868;9.080;2023-11-18T14:22:56;2.28;;;1.15;;
77573;SDS011;66710;48.868;9.080;2023-11-18T14:25:23;5.60;;;1.73;;
77573;SDS011;66710;48.868;9.080;2023-11-18T14:27:49;3.70;;;2.20;;
77573;SDS011;66710;48.868;9.080;2023-11-18T14:30:14;3.97;;;1.65;;
77573;SDS011;66710;48.868;9.080;2023-11-18T14:32:41;3.60;;;1.92;;
77573;SDS011;66710;48.868;9.080;2023-11-18T14:35:07;2.97;;;1.63;;
77573;SDS011;66710;48.868;9.080;2023-11-18T14:37:35;3.70;;;1.70;;
77573;SDS011;66710;48.868;9.080;2023-11-18T14:40:06;4.65;;;1.95;;
77573;SDS011;66710;48.868;9.080;2023-11-18T14:42:38;3.22;;;1.50;;
77573;SDS011;66710;48.868;9.080;2023-11-18T14:45:05;4.28;;;1.70;;
77573;SDS011;66710;48.868;9.080;2023-11-18T14:47:33;2.92;;;1.35;;
77573;SDS011;66710;48.868;9.080;2023-11-18T14:49:58;4.07;;;1.65;;
77573;SDS011;66710;48.868;9.080;2023-11-18T14:52:24;3.40;;;1.52;;
77573;SDS011;66710;48.868;9.080;2023-11-18T14:54:50;3.22;;;1.40;;
77573;SDS011;66710;48.868;9.080;2023-11-18T14:57:16;3.53;;;1.30;;
77573;SDS011;66710;48.868;9.080;2023-11-18T14:59:41;3.40;;;1.73;;
77573;SDS011;66710;48.868;9.080;2023-11-18T15:02:06;3.10;;;1.65;;
77573;SDS011;66710;48.868;9.080;2023-11-18T15:04:33;2.78;;;1.73;;
77573;SDS011;66710;48.868;9.080;2023-11-18T15:06:58;3.55;;;1.88;;
77573;SDS011;66710;48.868;9.080;2023-11-18T15:09:24;3.90;;;2.20;;
77573;SDS011;66710;48.868;9.080;2023-11-18T15:11:49;3.10;;;1.70;;
77573;SDS011;66710;48.868;9.080;2023-11-18T15:14:18;6.82;;;2.28;;
77573;SDS011;66710;48.868;9.080;2023-11-18T15:16:44;3.00;;;1.88;;
77573;SDS011;66710;48.868;9.080;2023-11-18T15:19:11;3.53;;;1.85;;
77573;SDS011;66710;48.868;9.080;2023-11-18T15:21:36;2.90;;;1.27;;
77573;SDS011;66710;48.868;9.080;2023-11-18T15:24:02;3.10;;;1.67;;
77573;SDS011;66710;48.868;9.080;2023-11-18T15:26:28;3.33;;;1.77;;
77573;SDS011;66710;48.868;9.080;2023-11-18T15:28:56;4.53;;;1.67;;